Jackson, AL (36545)

4:55 PM CDT on August 29, 2016 (GMT -0500)
Belview Circle | | Change Station

Elev 330 ft 31.54 °N, 87.89 °W | Updated 5 seconds ago

Partly Cloudy
Partly Cloudy
92.0 °F
Feels Like 109 °F
N
0.0
Wind Variable Wind from NE
Gusts 5.0 mph

Today
High -- | Low -- °F
--% Chance of Precip.
Yesterday
High -- | Low -- °F
Precip. -- in
Pressure 29.95 in
Visibility 10.0 miles
Clouds Few 5000 ft
Few 6500 ft
Heat Index 109 °F
Dew Point 79 °F
Humidity 66%
Rainfall 0.00 in
Snow Depth Not available.
6:25 AM 7:18 PM
Waning Crescent, 7% visible
METAR KGZH 292153Z AUTO 06005KT 10SM FEW050 FEW065 33/22 A2996 RMK AO2 SLP141 T03280222
Pressure 29.95 in
Visibility 10.0 miles
Clouds Few 5000 ft
Few 6500 ft
Heat Index 109 °F
Dew Point 79 °F
Humidity 66%
Rainfall 0.00 in
Snow Depth Not available.
6:25 AM 7:18 PM
Waning Crescent, 7% visible
METAR KGZH 292153Z AUTO 06005KT 10SM FEW050 FEW065 33/22 A2996 RMK AO2 SLP141 T03280222
Tropical Depression Nine was centered about 170 miles west-southwest of Key West, Florida, as of late Monday morning. The depression may struggle a bit in the southern Gulf of Mexico before finally making a Gulf Coast landfall later this week with soaking rain and gusty winds.

This latest system was designated a tropical depression Sunday after a Hurricane Hunter reconnaissance mission finally found a sufficiently organized low-pressure center with collocated shower and thunderstorm activity.

10-Day Weather Forecast

Almanac

Astronomy

Aug. 29, 2016 Rise Set
Actual Time
Civil Twilight
Nautical Twilight
Astronomical Twilight
Moon
Length of Visible Light
Length of Day
Tomorrow will be .
, % of the Moon is Illuminated

Today's Extremes

State Highs State Lows

Community

WunderPhotos

Upload Photos

1,935,690 photos uploaded!

WunderBlog® & News

Nearby

Air Quality

  Air Quality AQ Index Pollutant
Not available.

Snow Depth

Station Depth Elevation

Earthquake Activity

City Distance Mag. Time & Date
Minimum magnitude displayed is 2.5.

Coastal Water Temperatures

Place Temperature

Stations

Nearby Weather Stations

Station Location Temp. Windchill Dew Point Humidity Wind Precip. Elev Updated Type
                   

Watches & Warnings

There are currently no watches in effect.